Time;durP1;ratioP1;P1;durP2;ratioP2;P2;SDS_P1;SDS_P2;PMS_P1;PMS_P2;Temp;Humidity;BMP_temperature;BMP_pressure;BME280_temperature;BME280_humidity;BME280_pressure;Samples;Min_cycle;Max_cycle;Signal;HPM_P1;HPM_P2
2020/12/09 00:01:10;;;;;;;77.78;23.75;;;;;;;2.64;86.79;100403.13;5105306;28;20041;-70
2020/12/09 00:03:36;;;;;;;47.53;16.15;;;;;;;2.54;87.22;100398.63;5105723;28;20024;-69
2020/12/09 00:06:01;;;;;;;46.53;18.25;;;;;;;2.58;87.30;100409.00;5105266;28;20442;-70
2020/12/09 00:08:27;;;;;;;38.55;14.68;;;;;;;2.80;86.74;100406.06;5105286;28;20054;-70
2020/12/09 00:10:52;;;;;;;97.72;30.00;;;;;;;2.60;87.16;100411.59;5105283;28;20016;-71
2020/12/09 00:13:17;;;;;;;59.83;17.92;;;;;;;2.59;87.64;100412.41;5105354;28;20028;-71
2020/12/09 00:15:43;;;;;;;83.40;26.98;;;;;;;2.61;87.47;100410.75;5105103;28;20032;-70
2020/12/09 00:18:09;;;;;;;84.63;27.95;;;;;;;2.60;87.55;100415.00;5105356;28;20020;-71
2020/12/09 00:20:35;;;;;;;51.35;17.02;;;;;;;2.62;87.55;100416.75;5105134;28;20468;-69
2020/12/09 00:23:00;;;;;;;63.42;19.15;;;;;;;2.60;87.68;100421.84;5104718;28;20028;-69
2020/12/09 00:25:26;;;;;;;47.75;15.63;;;;;;;2.72;87.34;100419.56;5103462;28;20088;-69
2020/12/09 00:27:51;;;;;;;80.15;27.50;;;;;;;2.61;87.31;100410.75;5105106;28;20024;-69
2020/12/09 00:30:16;;;;;;;45.08;16.05;;;;;;;2.72;87.25;100419.56;5105227;28;20024;-69
2020/12/09 00:32:42;;;;;;;59.17;19.30;;;;;;;2.68;87.45;100422.03;5104996;28;20050;-70
2020/12/09 00:35:08;;;;;;;76.25;24.98;;;;;;;2.69;87.32;100422.06;5104760;28;20111;-69
2020/12/09 00:37:34;;;;;;;27.70;11.27;;;;;;;2.85;86.44;100425.00;5104555;28;20050;-69
2020/12/09 00:39:59;;;;;;;88.43;29.25;;;;;;;2.59;87.46;100413.28;5104783;28;20024;-69
2020/12/09 00:42:25;;;;;;;69.10;24.85;;;;;;;2.68;87.42;100420.34;5103544;28;20089;-69
2020/12/09 00:44:50;;;;;;;51.38;18.98;;;;;;;2.77;87.06;100427.38;5104680;28;20514;-69
2020/12/09 00:47:16;;;;;;;79.63;28.02;;;;;;;2.65;87.37;100422.81;5103459;28;20077;-69
2020/12/09 00:52:25;;;;;;;37.95;14.70;;;;;;;2.79;86.93;100425.72;5104346;28;20053;-69
2020/12/09 00:54:51;;;;;;;47.97;18.77;;;;;;;2.69;87.17;100429.75;5102958;28;20024;-68
2020/12/09 00:57:21;;;;;;;47.42;17.80;;;;;;;2.70;87.32;100426.34;5104584;28;20024;-68
2020/12/09 00:59:47;;;;;;;60.33;21.55;;;;;;;2.72;87.27;100417.00;5103257;28;20292;-68
2020/12/09 01:02:12;;;;;;;41.05;15.45;;;;;;;2.79;86.94;100430.84;5104536;28;20071;-69
2020/12/09 01:04:38;;;;;;;44.22;17.05;;;;;;;2.84;86.71;100423.28;5104241;28;20047;-69
2020/12/09 01:07:03;;;;;;;35.95;12.23;;;;;;;2.68;87.44;100428.03;5104008;28;20016;-69
2020/12/09 01:09:29;;;;;;;57.15;21.35;;;;;;;2.88;86.76;100439.56;5104286;28;20028;-69
2020/12/09 01:11:54;;;;;;;35.28;13.52;;;;;;;2.84;87.07;100428.41;5104572;28;20017;-72
2020/12/09 01:14:19;;;;;;;64.53;24.25;;;;;;;2.73;87.36;100436.69;5104007;28;20024;-70
2020/12/09 01:16:45;;;;;;;43.70;16.65;;;;;;;2.65;87.58;100427.94;5104200;28;20019;-70
2020/12/09 01:19:10;;;;;;;47.00;15.38;;;;;;;2.64;87.73;100426.22;5102756;28;20029;-70
2020/12/09 01:21:35;;;;;;;42.35;16.40;;;;;;;2.83;87.25;100431.78;5103850;28;20028;-71
2020/12/09 01:24:01;;;;;;;48.97;18.50;;;;;;;2.85;86.73;100435.25;5103951;28;20455;-70
2020/12/09 01:26:26;;;;;;;49.38;15.75;;;;;;;2.76;87.49;100438.47;5104006;28;20030;-71
2020/12/09 01:28:52;;;;;;;52.92;17.52;;;;;;;2.80;87.22;100421.44;5104072;28;20164;-71
2020/12/09 01:31:21;;;;;;;53.63;17.50;;;;;;;2.81;87.00;100428.31;5103913;28;20178;-70
2020/12/09 01:33:47;;;;;;;36.67;15.07;;;;;;;2.78;87.36;100438.50;5103860;28;20055;-69
2020/12/09 01:36:12;;;;;;;64.25;22.45;;;;;;;2.73;87.28;100423.03;5103593;28;20044;-70
2020/12/09 01:38:37;;;;;;;49.10;18.58;;;;;;;2.77;87.38;100429.06;5104045;28;20024;-71
2020/12/09 01:41:03;;;;;;;36.25;13.15;;;;;;;2.88;87.09;100424.19;5103767;28;20047;-71
2020/12/09 01:43:28;;;;;;;64.28;20.77;;;;;;;2.72;87.66;100429.84;5103705;28;20415;-70
2020/12/09 01:45:53;;;;;;;47.17;16.58;;;;;;;2.83;87.74;100421.53;5102491;28;20039;-71
2020/12/09 01:48:19;;;;;;;40.63;13.20;;;;;;;2.86;87.26;100421.59;5103899;28;20024;-71
2020/12/09 01:50:45;;;;;;;40.25;12.93;;;;;;;2.92;86.78;100421.75;5103782;28;20299;-73
2020/12/09 01:53:10;;;;;;;49.45;17.73;;;;;;;2.78;87.50;100428.25;5103429;28;20334;-70
2020/12/09 01:55:36;;;;;;;20.30;8.57;;;;;;;2.97;87.14;100425.28;5103384;28;20040;-70
2020/12/09 01:58:01;;;;;;;32.97;11.68;;;;;;;2.80;87.43;100422.31;5103370;28;20020;-70
2020/12/09 02:00:26;;;;;;;46.53;17.85;;;;;;;2.89;87.18;100416.53;5103659;28;20088;-71
2020/12/09 02:02:52;;;;;;;41.00;11.85;;;;;;;2.89;87.33;100420.81;5103435;28;20070;-72
2020/12/09 02:05:17;;;;;;;15.27;7.90;;;;;;;3.04;86.39;100407.47;5103459;28;20046;-72
2020/12/09 02:07:43;;;;;;;36.92;13.48;;;;;;;2.93;86.49;100410.66;5103185;28;20042;-70
2020/12/09 02:10:08;;;;;;;27.67;12.20;;;;;;;2.78;87.34;100407.75;5103701;28;20024;-70
2020/12/09 02:12:38;;;;;;;34.83;14.40;;;;;;;3.00;86.64;100421.06;5105859;28;20068;-71
2020/12/09 02:15:05;;;;;;;49.47;17.42;;;;;;;2.90;86.87;100418.28;5106653;28;20036;-71
2020/12/09 02:17:31;;;;;;;35.67;13.07;;;;;;;2.89;87.32;100413.97;5107688;28;20102;-71
2020/12/09 02:19:56;;;;;;;42.47;13.25;;;;;;;2.95;87.11;100423.50;5107593;28;20158;-70
2020/12/09 02:22:22;;;;;;;65.65;24.25;;;;;;;2.81;87.17;100420.63;5107244;28;20029;-71
2020/12/09 02:24:47;;;;;;;32.25;11.82;;;;;;;2.80;87.59;100426.56;5107349;28;20045;-71
2020/12/09 02:27:13;;;;;;;70.35;25.88;;;;;;;2.83;87.44;100413.81;5107436;28;20519;-71
2020/12/09 02:29:38;;;;;;;34.72;13.50;;;;;;;2.83;87.58;100421.53;5107283;28;20036;-70
2020/12/09 02:32:04;;;;;;;44.63;14.50;;;;;;;2.75;88.11;100429.03;5107228;28;20016;-71
2020/12/09 02:34:29;;;;;;;38.25;14.52;;;;;;;2.80;88.06;100431.69;5107189;28;20016;-70
2020/12/09 02:36:54;;;;;;;78.00;27.42;;;;;;;2.80;88.09;100431.69;5106892;28;20028;-70
2020/12/09 02:39:34;;;;;;;52.90;18.67;;;;;;;2.80;88.16;100431.69;5105680;28;20542;-70
2020/12/09 02:42:00;;;;;;;64.95;23.27;;;;;;;2.79;88.35;100427.41;5107112;28;20055;-71
2020/12/09 02:44:26;;;;;;;43.33;16.88;;;;;;;2.90;87.87;100431.09;5106695;28;20083;-71
2020/12/09 02:46:51;;;;;;;39.22;14.30;;;;;;;2.95;87.73;100432.09;5107122;28;20035;-71
2020/12/09 02:49:17;;;;;;;65.22;24.40;;;;;;;2.90;87.62;100428.53;5106892;28;20112;-70
2020/12/09 02:51:42;;;;;;;43.60;17.55;;;;;;;3.05;87.14;100437.44;5106633;28;20044;-69
2020/12/09 02:54:08;;;;;;;48.20;16.95;;;;;;;3.01;87.17;100446.75;5106950;28;20027;-69
2020/12/09 02:56:33;;;;;;;31.60;12.98;;;;;;;3.03;87.11;100449.34;5106690;28;20478;-69
2020/12/09 02:58:58;;;;;;;19.77;9.85;;;;;;;3.27;85.76;100440.47;5105217;28;20035;-70
2020/12/09 03:01:24;;;;;;;45.92;18.45;;;;;;;3.09;86.34;100445.22;5106460;28;20036;-69
2020/12/09 03:03:49;;;;;;;20.77;10.50;;;;;;;3.14;86.01;100453.03;5106839;28;20016;-69
2020/12/09 03:06:14;;;;;;;33.08;13.82;;;;;;;3.05;86.40;100458.78;5106320;28;20028;-68
2020/12/09 03:08:40;;;;;;;38.47;15.38;;;;;;;3.02;86.65;100463.00;5106503;28;20032;-68
2020/12/09 03:11:05;;;;;;;21.15;8.95;;;;;;;3.27;85.90;100454.19;5106425;28;20044;-68
2020/12/09 03:13:31;;;;;;;40.88;15.40;;;;;;;3.34;85.26;100457.72;5105026;28;20036;-69
2020/12/09 03:15:56;;;;;;;28.70;10.75;;;;;;;3.00;86.75;100459.53;5106282;28;20020;-68
2020/12/09 03:18:21;;;;;;;27.65;10.55;;;;;;;3.09;86.73;100463.19;5104877;28;20020;-68
2020/12/09 03:20:47;;;;;;;35.42;14.40;;;;;;;3.11;86.39;100463.22;5106144;28;20046;-69
2020/12/09 03:23:12;;;;;;;21.58;10.82;;;;;;;3.14;86.35;100468.41;5105776;28;20088;-68
2020/12/09 03:25:38;;;;;;;28.85;9.77;;;;;;;3.27;85.88;100478.97;5106303;28;20012;-67
2020/12/09 03:28:03;;;;;;;33.05;13.90;;;;;;;3.22;85.82;100474.59;5106260;28;20099;-68
2020/12/09 03:30:28;;;;;;;20.02;9.85;;;;;;;3.24;85.69;100479.78;5106148;28;20027;-67
2020/12/09 03:32:53;;;;;;;27.17;11.65;;;;;;;3.03;86.85;100477.56;5106142;28;20062;-67
2020/12/09 03:35:19;;;;;;;16.60;8.45;;;;;;;3.18;86.54;100471.94;5106051;28;20373;-69
2020/12/09 03:37:44;;;;;;;31.20;12.18;;;;;;;3.17;86.11;100478.75;5104168;28;20020;-67
2020/12/09 03:40:10;;;;;;;13.05;5.78;;;;;;;3.36;85.77;100484.28;5105942;28;20032;-67
2020/12/09 03:42:35;;;;;;;33.60;15.60;;;;;;;3.12;86.35;100480.34;5105844;28;20533;-66
2020/12/09 03:45:00;;;;;;;29.35;13.50;;;;;;;3.19;86.15;100489.94;5105752;28;20039;-67
2020/12/09 03:47:26;;;;;;;30.70;14.32;;;;;;;2.99;87.17;100484.31;5105540;28;20028;-67
2020/12/09 03:49:51;;;;;;;49.15;21.10;;;;;;;2.94;87.37;100485.91;5104236;28;20545;-67
2020/12/09 03:52:16;;;;;;;46.83;19.60;;;;;;;3.07;87.10;100487.03;5105365;28;20020;-67
2020/12/09 03:54:42;;;;;;;28.15;13.60;;;;;;;3.04;87.14;100485.28;5105775;28;20049;-66
2020/12/09 03:57:07;;;;;;;39.53;18.10;;;;;;;3.00;87.28;100482.63;5105399;28;20384;-67
2020/12/09 03:59:32;;;;;;;49.28;21.40;;;;;;;3.05;87.22;100484.44;5105477;28;20038;-67
2020/12/09 04:01:58;;;;;;;50.13;21.52;;;;;;;2.99;87.51;100483.47;5105062;28;20060;-66
2020/12/09 04:04:23;;;;;;;44.70;16.25;;;;;;;3.09;87.13;100487.97;5105192;28;20024;-67
2020/12/09 04:06:48;;;;;;;50.78;21.55;;;;;;;3.06;87.08;100486.19;5105061;28;20032;-68
2020/12/09 04:09:14;;;;;;;35.65;16.15;;;;;;;3.34;85.94;100496.22;5105367;28;20104;-68
2020/12/09 04:11:39;;;;;;;41.80;17.85;;;;;;;3.13;86.70;100492.31;5105002;28;20487;-69
2020/12/09 04:14:04;;;;;;;37.45;16.27;;;;;;;3.11;86.79;100499.13;5105131;28;20034;-69
2020/12/09 04:16:30;;;;;;;32.60;13.35;;;;;;;3.17;86.68;100495.84;5105099;28;20083;-68
2020/12/09 04:18:55;;;;;;;49.88;20.73;;;;;;;3.00;87.40;100496.31;5104962;28;20430;-69
2020/12/09 04:21:20;;;;;;;36.25;15.32;;;;;;;3.06;87.28;100493.91;5104603;28;20039;-69
2020/12/09 04:23:46;;;;;;;49.10;21.50;;;;;;;3.05;87.35;100496.44;5104864;28;20039;-69
2020/12/09 04:26:12;;;;;;;55.10;23.02;;;;;;;3.05;87.43;100492.13;5105018;28;20019;-69
2020/12/09 04:28:37;;;;;;;50.20;22.73;;;;;;;3.11;87.54;100491.44;5105112;28;20031;-69
2020/12/09 04:31:02;;;;;;;54.92;23.85;;;;;;;3.15;87.43;100480.41;5104712;28;20036;-69
2020/12/09 04:33:30;;;;;;;60.25;23.73;;;;;;;3.19;87.73;100479.66;5104714;28;20102;-69
2020/12/09 04:35:56;;;;;;;27.40;11.43;;;;;;;3.34;86.82;100470.56;5103816;28;20036;-69
2020/12/09 04:38:22;;;;;;;43.17;18.85;;;;;;;3.27;86.54;100472.13;5104105;28;20020;-69
2020/12/09 04:40:47;;;;;;;49.85;23.55;;;;;;;3.24;86.81;100477.19;5104253;28;20016;-69
2020/12/09 04:43:13;;;;;;;29.10;11.68;;;;;;;3.26;86.88;100470.38;5104173;28;20023;-69
2020/12/09 04:45:38;;;;;;;29.10;12.98;;;;;;;3.30;86.52;100471.31;5104102;28;20158;-68
2020/12/09 04:48:06;;;;;;;21.25;10.75;;;;;;;3.25;86.78;100471.22;5104254;28;20023;-69
2020/12/09 04:50:35;;;;;;;45.47;21.02;;;;;;;3.24;86.89;100481.47;5104095;28;20038;-69
2020/12/09 04:53:21;;;;;;;25.42;11.63;;;;;;;3.30;86.59;100473.91;5103794;28;20016;-68
2020/12/09 04:55:51;;;;;;;32.10;13.40;;;;;;;3.27;86.69;100484.97;5104108;28;20020;-69
2020/12/09 04:58:28;;;;;;;35.63;16.92;;;;;;;3.31;85.95;100473.94;5103947;28;20065;-68
2020/12/09 05:01:04;;;;;;;33.33;14.77;;;;;;;3.39;85.92;100475.78;5104024;28;20080;-68
2020/12/09 05:03:42;;;;;;;33.40;14.77;;;;;;;3.38;86.01;100477.50;5102836;28;20036;-68
2020/12/09 05:06:10;;;;;;;47.08;22.08;;;;;;;3.30;86.00;100490.16;5104233;28;20528;-69
2020/12/09 05:08:37;;;;;;;33.65;15.98;;;;;;;3.22;86.51;100482.31;5104014;28;20228;-70
2020/12/09 05:11:06;;;;;;;42.60;19.42;;;;;;;3.20;86.64;100483.06;5104296;28;20053;-70
2020/12/09 05:13:38;;;;;;;20.25;9.68;;;;;;;3.33;86.23;100473.97;5104183;28;20031;-69
2020/12/09 05:16:03;;;;;;;52.47;22.08;;;;;;;3.21;86.26;100475.41;5103837;28;20028;-69
2020/12/09 05:18:41;;;;;;;38.28;15.48;;;;;;;3.25;86.91;100485.75;5104188;28;20110;-69
2020/12/09 05:21:14;;;;;;;17.75;7.88;;;;;;;3.58;85.08;100487.31;5104013;28;20024;-68
2020/12/09 05:23:44;;;;;;;35.38;15.43;;;;;;;3.41;85.40;100494.66;5103863;28;20028;-69
2020/12/09 05:26:22;;;;;;;36.13;15.88;;;;;;;3.40;85.98;100490.38;5103909;28;20033;-69
2020/12/09 05:28:47;;;;;;;36.55;18.60;;;;;;;3.34;85.92;100494.53;5104022;28;20026;-69
2020/12/09 05:31:20;;;;;;;34.15;14.98;;;;;;;3.28;86.05;100481.56;5103668;28;20052;-68
2020/12/09 05:33:46;;;;;;;47.55;21.88;;;;;;;3.25;86.42;100494.31;5103770;28;20024;-68
2020/12/09 05:36:12;;;;;;;44.40;21.42;;;;;;;3.25;86.25;100478.03;5103726;28;20059;-69
2020/12/09 05:38:37;;;;;;;21.75;9.15;;;;;;;3.51;85.48;100477.78;5103662;28;20040;-67
2020/12/09 05:41:10;;;;;;;20.52;8.57;;;;;;;3.49;85.62;100479.44;5103753;28;20055;-68
2020/12/09 05:43:40;;;;;;;33.30;17.20;;;;;;;3.36;85.87;100494.56;5103923;28;20083;-68
2020/12/09 05:46:07;;;;;;;42.15;20.88;;;;;;;3.30;86.04;100491.84;5102949;28;20032;-69
2020/12/09 05:48:32;;;;;;;40.65;20.58;;;;;;;3.54;85.30;100493.25;5103784;28;20076;-69
2020/12/09 05:50:59;;;;;;;40.28;17.50;;;;;;;3.44;85.77;100498.19;5103876;28;20020;-69
2020/12/09 05:53:24;;;;;;;35.33;16.25;;;;;;;3.40;86.06;100493.81;5103337;28;20120;-70
2020/12/09 05:55:54;;;;;;;34.03;16.40;;;;;;;3.35;86.45;100492.84;5103528;28;20418;-70
2020/12/09 05:58:27;;;;;;;45.70;21.42;;;;;;;3.34;86.45;100486.81;5103645;28;20020;-68
2020/12/09 06:01:03;;;;;;;42.58;19.80;;;;;;;3.40;86.30;100498.06;5103406;28;20016;-70
2020/12/09 06:03:30;;;;;;;37.28;17.42;;;;;;;3.44;85.98;100487.03;5103692;28;20081;-70
2020/12/09 06:06:11;;;;;;;28.30;13.57;;;;;;;3.46;85.81;100490.50;5103360;28;20016;-71
2020/12/09 06:08:56;;;;;;;47.35;22.48;;;;;;;3.35;86.33;100488.56;5101906;28;20032;-71
2020/12/09 06:11:23;;;;;;;44.22;20.67;;;;;;;3.39;85.93;100489.50;5103773;28;20641;-71
2020/12/09 06:13:49;;;;;;;46.13;21.63;;;;;;;3.42;85.96;100493.84;5103609;28;20090;-70
2020/12/09 06:16:18;;;;;;;43.90;18.48;;;;;;;3.41;86.23;100497.22;5103381;28;20376;-72
2020/12/09 06:18:46;;;;;;;43.13;19.52;;;;;;;3.39;86.32;100494.63;5103520;28;20039;-71
2020/12/09 06:21:11;;;;;;;46.60;20.00;;;;;;;3.43;86.25;100491.31;5103472;28;20083;-71
2020/12/09 06:23:37;;;;;;;33.38;14.65;;;;;;;3.45;86.27;100492.19;5103294;28;20057;-74
2020/12/09 06:26:04;;;;;;;35.22;15.48;;;;;;;3.51;85.92;100490.59;5103481;28;20499;-69
2020/12/09 06:28:34;;;;;;;54.53;24.20;;;;;;;3.45;86.15;100499.06;5102318;28;20031;-68
2020/12/09 06:31:10;;;;;;;52.35;24.48;;;;;;;3.47;86.06;100498.25;5103363;28;20028;-68
2020/12/09 06:33:42;;;;;;;49.65;22.10;;;;;;;3.50;86.03;100497.44;5103440;28;20221;-68
2020/12/09 06:36:09;;;;;;;53.92;23.40;;;;;;;3.49;86.27;100502.53;5103449;28;20035;-69
2020/12/09 06:38:35;;;;;;;49.97;24.20;;;;;;;3.48;86.36;100501.69;5103196;28;20032;-75
2020/12/09 06:41:03;;;;;;;56.17;26.00;;;;;;;3.56;85.97;100512.13;5103330;28;20028;-71
2020/12/09 06:43:28;;;;;;;48.47;22.55;;;;;;;3.52;86.23;100503.47;5101826;28;20024;-74
2020/12/09 06:45:54;;;;;;;61.20;26.50;;;;;;;3.52;86.24;100505.16;5101899;28;20031;-74
2020/12/09 06:48:19;;;;;;;48.33;22.98;;;;;;;3.57;85.96;100518.97;5101636;28;20054;-74
2020/12/09 06:50:46;;;;;;;54.70;26.42;;;;;;;3.57;86.00;100525.00;5102060;28;20051;-74
2020/12/09 06:53:15;;;;;;;41.83;21.55;;;;;;;3.63;85.95;100526.81;5103042;28;20032;-74
2020/12/09 06:55:41;;;;;;;44.50;18.92;;;;;;;3.50;86.12;100512.00;5101732;28;20020;-73
2020/12/09 06:58:28;;;;;;;46.22;21.48;;;;;;;3.64;85.41;100531.13;5104761;28;20067;-75
2020/12/09 07:00:58;;;;;;;50.10;24.90;;;;;;;3.59;85.48;100527.59;5106333;28;20056;-74
2020/12/09 07:03:25;;;;;;;23.30;11.02;;;;;;;3.88;84.21;100544.47;5106790;28;20087;-74
2020/12/09 07:05:50;;;;;;;45.80;21.23;;;;;;;3.61;84.83;100535.31;5105578;28;20024;-74
2020/12/09 07:08:16;;;;;;;41.80;17.27;;;;;;;3.55;85.47;100551.44;5106593;28;20020;-74
2020/12/09 07:10:41;;;;;;;50.60;23.77;;;;;;;3.54;85.42;100554.84;5105459;28;20023;-74
2020/12/09 07:13:14;;;;;;;45.97;22.83;;;;;;;3.57;85.66;100560.94;5106892;28;20034;-74
2020/12/09 07:15:47;;;;;;;45.10;20.77;;;;;;;3.55;85.87;100543.75;5106578;28;20039;-74
2020/12/09 07:18:13;;;;;;;45.33;20.30;;;;;;;3.59;85.71;100546.41;5106731;28;20027;-75
2020/12/09 07:20:40;;;;;;;50.13;21.52;;;;;;;3.66;85.28;100544.00;5106393;28;20012;-74
2020/12/09 07:23:06;;;;;;;39.33;19.80;;;;;;;3.65;85.19;100537.13;5106372;28;20034;-75
2020/12/09 07:25:33;;;;;;;47.33;21.65;;;;;;;3.57;85.54;100545.53;5105892;28;20503;-74
2020/12/09 07:27:58;;;;;;;47.17;21.58;;;;;;;3.57;85.66;100539.50;5105803;28;20028;-70
2020/12/09 07:30:24;;;;;;;46.13;22.73;;;;;;;3.55;85.74;100544.63;5106241;28;20107;-73
2020/12/09 07:32:51;;;;;;;42.28;16.73;;;;;;;3.51;85.80;100531.69;5106567;28;20020;-73
2020/12/09 07:35:17;;;;;;;50.15;25.33;;;;;;;3.63;85.55;100551.63;5104746;28;20143;-74
2020/12/09 07:37:47;;;;;;;54.38;25.73;;;;;;;3.65;85.35;100552.53;5105697;28;20028;-73
2020/12/09 07:40:22;;;;;;;38.85;19.73;;;;;;;3.62;85.58;100542.19;5104109;28;20111;-74
2020/12/09 07:43:05;;;;;;;46.58;24.95;;;;;;;3.61;85.64;100551.56;5105429;28;20008;-73
2020/12/09 07:45:35;;;;;;;50.78;25.33;;;;;;;3.62;85.74;100561.03;5105141;28;20028;-75
2020/12/09 07:48:06;;;;;;;53.10;23.13;;;;;;;3.62;85.73;100555.91;5106057;28;20020;-74
2020/12/09 07:50:32;;;;;;;46.42;21.77;;;;;;;3.66;85.52;100557.69;5106131;28;20034;-74
2020/12/09 07:52:58;;;;;;;33.97;15.85;;;;;;;3.72;85.38;100568.09;5105691;28;20055;-74
2020/12/09 07:55:25;;;;;;;52.25;24.90;;;;;;;3.67;85.50;100572.28;5104586;28;20032;-74
2020/12/09 07:57:51;;;;;;;36.97;20.10;;;;;;;3.80;84.89;100573.41;5105563;28;20028;-73
2020/12/09 08:00:17;;;;;;;46.00;22.60;;;;;;;3.69;85.04;100573.16;5104957;28;20028;-74
2020/12/09 08:02:44;;;;;;;40.78;18.60;;;;;;;3.86;84.30;100572.69;5104211;28;20116;-74
2020/12/09 08:05:16;;;;;;;20.63;10.80;;;;;;;3.97;83.80;100562.63;5104705;28;20102;-73
2020/12/09 08:08:15;;;;;;;51.85;25.02;;;;;;;3.74;84.66;100570.69;5104997;28;20107;-74
2020/12/09 08:10:43;;;;;;;35.47;15.70;;;;;;;3.98;83.52;100566.94;5104179;28;20077;-72
2020/12/09 08:13:10;;;;;;;32.70;15.38;;;;;;;3.78;83.81;100575.09;5105013;28;20031;-73
2020/12/09 08:15:38;;;;;;;35.67;17.55;;;;;;;3.78;84.34;100589.63;5103499;28;20087;-72
2020/12/09 08:18:04;;;;;;;41.38;21.05;;;;;;;3.72;84.67;100591.22;5104928;28;20020;-73
2020/12/09 08:20:43;;;;;;;38.20;19.40;;;;;;;3.78;84.40;100587.06;5104716;28;20020;-73
2020/12/09 08:23:09;;;;;;;42.90;19.25;;;;;;;3.76;84.56;100581.88;5104615;28;20042;-73
2020/12/09 08:25:45;;;;;;;38.80;19.35;;;;;;;3.65;84.98;100573.06;5103557;28;20040;-75
2020/12/09 08:28:11;;;;;;;39.05;17.63;;;;;;;3.75;84.70;100575.03;5104353;28;20024;-73
2020/12/09 08:30:36;;;;;;;47.92;20.90;;;;;;;3.81;83.74;100564.88;5104081;28;20085;-73
2020/12/09 08:33:07;;;;;;;41.88;18.63;;;;;;;3.77;84.51;100580.19;5104425;28;20031;-73
2020/12/09 08:35:47;;;;;;;35.17;15.48;;;;;;;3.82;84.48;100583.72;5104795;28;20023;-73
2020/12/09 08:38:23;;;;;;;38.42;19.42;;;;;;;3.75;84.58;100587.88;5104537;28;20028;-73
2020/12/09 08:40:54;;;;;;;45.95;19.67;;;;;;;3.71;84.62;100588.59;5103239;28;20027;-73
2020/12/09 08:43:26;;;;;;;22.17;10.30;;;;;;;3.97;83.61;100590.91;5104664;28;20055;-73
2020/12/09 08:45:52;;;;;;;43.63;21.25;;;;;;;3.94;83.65;100588.25;5104621;28;20044;-72
2020/12/09 08:48:19;;;;;;;20.52;8.90;;;;;;;3.82;84.09;100587.16;5104580;28;20539;-72
2020/12/09 08:50:48;;;;;;;36.53;14.70;;;;;;;3.89;83.63;100590.75;5103376;28;20357;-73
2020/12/09 08:53:13;;;;;;;39.78;18.73;;;;;;;3.81;84.16;100595.69;5104234;28;20065;-74
2020/12/09 08:55:41;;;;;;;40.85;20.65;;;;;;;3.84;84.05;100594.91;5104328;28;20027;-73
2020/12/09 08:58:07;;;;;;;16.27;7.97;;;;;;;4.01;83.42;100586.72;5104307;28;20422;-73
2020/12/09 09:00:33;;;;;;;40.53;17.23;;;;;;;3.80;83.76;100581.09;5104364;28;20024;-73
2020/12/09 09:02:59;;;;;;;29.23;15.23;;;;;;;3.84;83.85;100590.63;5102577;28;20109;-74
2020/12/09 09:05:24;;;;;;;32.35;18.83;;;;;;;3.80;83.87;100582.84;5103587;28;20020;-73
2020/12/09 09:07:49;;;;;;;38.83;17.63;;;;;;;3.82;83.72;100584.59;5103541;28;20080;-73
2020/12/09 09:10:15;;;;;;;34.28;16.83;;;;;;;3.81;83.98;100581.97;5104475;28;20028;-73
2020/12/09 09:12:40;;;;;;;26.15;10.10;;;;;;;3.96;83.08;100572.03;5104239;28;20050;-73
2020/12/09 09:15:08;;;;;;;33.05;17.08;;;;;;;3.89;83.14;100583.03;5103877;28;20066;-73
2020/12/09 09:17:36;;;;;;;31.73;15.98;;;;;;;4.00;82.37;100577.25;5101974;28;20023;-72
2020/12/09 09:20:01;;;;;;;34.35;18.75;;;;;;;3.82;83.00;100574.31;5103879;28;20133;-72
2020/12/09 09:22:26;;;;;;;26.60;13.73;;;;;;;3.79;83.45;100574.25;5103220;28;20134;-73
2020/12/09 09:24:52;;;;;;;34.50;19.05;;;;;;;3.84;83.42;100579.47;5103963;28;20035;-74
2020/12/09 09:27:17;;;;;;;39.20;18.98;;;;;;;3.83;83.63;100578.59;5103936;28;20054;-74
2020/12/09 09:29:42;;;;;;;33.58;17.00;;;;;;;3.86;83.34;100572.69;5103754;28;20022;-74
2020/12/09 09:32:09;;;;;;;32.80;14.77;;;;;;;3.90;83.26;100578.78;5103978;28;20081;-74
2020/12/09 09:34:35;;;;;;;39.17;19.17;;;;;;;3.87;83.24;100579.56;5103691;28;20107;-74
2020/12/09 09:37:03;;;;;;;32.95;16.95;;;;;;;3.96;82.53;100579.75;5103446;28;20120;-74
2020/12/09 09:39:29;;;;;;;29.67;14.38;;;;;;;3.91;82.44;100595.91;5103084;28;20024;-74
2020/12/09 09:41:56;;;;;;;27.17;13.57;;;;;;;3.97;81.88;100586.63;5102481;28;20026;-75
2020/12/09 09:44:22;;;;;;;31.35;15.60;;;;;;;3.88;82.02;100590.69;5103162;28;20020;-73
2020/12/09 09:46:48;;;;;;;29.52;14.43;;;;;;;3.93;82.05;100587.38;5103601;28;20016;-74
2020/12/09 09:49:13;;;;;;;32.53;15.07;;;;;;;3.90;82.32;100583.91;5103553;28;20020;-74
2020/12/09 09:51:38;;;;;;;35.00;18.35;;;;;;;3.91;82.25;100593.34;5103447;28;20016;-74
2020/12/09 09:54:04;;;;;;;33.65;17.33;;;;;;;3.90;82.54;100594.19;5103612;28;20035;-74
2020/12/09 09:56:29;;;;;;;32.63;16.77;;;;;;;3.90;82.81;100600.16;5103472;28;20027;-75
2020/12/09 09:58:55;;;;;;;25.88;11.65;;;;;;;4.02;81.85;100591.88;5103642;28;20329;-73
2020/12/09 10:01:20;;;;;;;24.02;11.23;;;;;;;3.95;81.89;100598.56;5103258;28;20055;-73
2020/12/09 10:03:45;;;;;;;21.88;10.57;;;;;;;3.91;82.00;100585.63;5103607;28;20020;-74
2020/12/09 10:06:11;;;;;;;22.25;11.75;;;;;;;3.93;82.10;100589.13;5103813;28;20081;-75
2020/12/09 10:08:36;;;;;;;30.92;14.75;;;;;;;3.90;81.97;100583.91;5103552;28;20476;-74
2020/12/09 10:11:03;;;;;;;23.45;12.50;;;;;;;3.90;81.91;100578.78;5102378;28;20032;-73
2020/12/09 10:13:29;;;;;;;27.85;14.95;;;;;;;3.91;82.12;100590.78;5102096;28;20012;-74
2020/12/09 10:15:56;;;;;;;31.15;17.95;;;;;;;3.92;82.17;100589.91;5103328;28;20043;-74
2020/12/09 10:18:21;;;;;;;18.85;8.93;;;;;;;4.09;81.08;100578.31;5103574;28;20137;-73
2020/12/09 10:20:46;;;;;;;25.80;14.80;;;;;;;3.97;81.10;100596.91;5103174;28;20050;-73
2020/12/09 10:23:12;;;;;;;20.77;11.10;;;;;;;4.08;80.42;100594.56;5103307;28;20024;-73
2020/12/09 10:25:37;;;;;;;23.30;12.85;;;;;;;4.00;80.19;100590.09;5104559;28;20533;-73
2020/12/09 10:28:02;;;;;;;28.05;12.00;;;;;;;3.90;80.87;100584.75;5103995;28;20024;-72
2020/12/09 10:30:28;;;;;;;25.80;12.98;;;;;;;3.97;80.24;100584.06;5103447;28;20024;-73
2020/12/09 10:32:53;;;;;;;23.40;13.70;;;;;;;3.87;80.64;100581.25;5104925;28;20023;-73
2020/12/09 10:35:18;;;;;;;21.42;9.82;;;;;;;3.91;80.88;100588.19;5107364;28;20473;-73
2020/12/09 10:37:44;;;;;;;22.00;9.77;;;;;;;3.96;80.85;100590.03;5105754;28;20035;-72
2020/12/09 10:40:09;;;;;;;23.75;13.00;;;;;;;3.93;80.72;100589.13;5107172;28;20080;-73
2020/12/09 10:42:35;;;;;;;23.27;10.43;;;;;;;3.96;80.29;100587.44;5107228;28;20436;-73
2020/12/09 10:45:00;;;;;;;29.35;15.18;;;;;;;3.93;80.62;100579.69;5107295;28;20032;-74
2020/12/09 10:47:26;;;;;;;16.45;8.77;;;;;;;4.13;79.26;100579.25;5107502;28;20031;-75
2020/12/09 10:49:51;;;;;;;26.73;16.73;;;;;;;3.93;79.78;100574.53;5107153;28;20027;-74
2020/12/09 10:52:17;;;;;;;28.10;13.65;;;;;;;3.86;80.13;100567.56;5107029;28;20028;-76
2020/12/09 10:54:42;;;;;;;24.38;13.38;;;;;;;3.88;80.61;100576.16;5107141;28;20491;-73
2020/12/09 10:57:08;;;;;;;21.17;10.00;;;;;;;3.93;80.55;100573.69;5107047;28;20024;-75
2020/12/09 10:59:33;;;;;;;28.55;13.73;;;;;;;3.89;80.39;100570.19;5106875;28;20016;-73
2020/12/09 11:01:59;;;;;;;24.67;13.35;;;;;;;3.95;80.16;100561.72;5106664;28;20106;-71
2020/12/09 11:04:24;;;;;;;26.98;14.25;;;;;;;3.83;80.41;100563.19;5105234;28;20479;-71
2020/12/09 11:06:50;;;;;;;25.02;12.38;;;;;;;3.86;80.86;100572.69;5106589;28;20023;-72
2020/12/09 11:09:15;;;;;;;26.27;14.38;;;;;;;3.90;80.71;100574.47;5107039;28;20081;-73
2020/12/09 11:11:45;;;;;;;28.92;15.20;;;;;;;3.95;80.32;100569.44;5105541;28;20084;-74
2020/12/09 11:14:15;;;;;;;26.65;14.00;;;;;;;3.91;80.73;100571.09;5105566;28;20023;-75
2020/12/09 11:16:41;;;;;;;25.00;14.32;;;;;;;3.90;79.98;100548.78;5105558;28;20031;-74
2020/12/09 11:19:07;;;;;;;22.15;10.07;;;;;;;3.99;79.86;100557.53;5106855;28;20031;-74